sensor_id;sensor_type;location;lat;lon;timestamp;pressure;altitude;pressure_sealevel;temperature;humidity
3844;BME280;1937;51.444;6.484;2022-10-16T00:01:48;99856.72;;;14.33;100.00
3844;BME280;1937;51.444;6.484;2022-10-16T00:04:18;99315.44;;;14.39;100.00
3844;BME280;1937;51.444;6.484;2022-10-16T00:06:46;100187.56;;;14.42;100.00
3844;BME280;1937;51.444;6.484;2022-10-16T00:09:14;99053.63;;;14.31;100.00
3844;BME280;1937;51.444;6.484;2022-10-16T00:11:43;99450.28;;;14.43;100.00
3844;BME280;1937;51.444;6.484;2022-10-16T00:14:14;98975.97;;;14.33;100.00
3844;BME280;1937;51.444;6.484;2022-10-16T00:16:44;99641.69;;;14.50;100.00
3844;BME280;1937;51.444;6.484;2022-10-16T00:19:12;97568.91;;;14.29;100.00
3844;BME280;1937;51.444;6.484;2022-10-16T00:21:42;98894.56;;;14.41;100.00
3844;BME280;1937;51.444;6.484;2022-10-16T00:24:11;99180.97;;;14.45;100.00
3844;BME280;1937;51.444;6.484;2022-10-16T00:26:40;98733.88;;;14.32;100.00
3844;BME280;1937;51.444;6.484;2022-10-16T00:29:09;99977.63;;;14.40;100.00
3844;BME280;1937;51.444;6.484;2022-10-16T00:31:37;99059.03;;;14.44;100.00
3844;BME280;1937;51.444;6.484;2022-10-16T00:34:06;98678.00;;;14.34;100.00
3844;BME280;1937;51.444;6.484;2022-10-16T00:36:35;99519.63;;;14.31;100.00
3844;BME280;1937;51.444;6.484;2022-10-16T00:39:05;98681.97;;;14.42;100.00
3844;BME280;1937;51.444;6.484;2022-10-16T00:41:34;97831.25;;;14.38;100.00
3844;BME280;1937;51.444;6.484;2022-10-16T00:44:41;97797.28;;;14.38;100.00
3844;BME280;1937;51.444;6.484;2022-10-16T00:46:52;98815.75;;;14.17;100.00
3844;BME280;1937;51.444;6.484;2022-10-16T00:49:21;99995.03;;;14.16;100.00
3844;BME280;1937;51.444;6.484;2022-10-16T00:51:53;101182.38;;;14.25;100.00
3844;BME280;1937;51.444;6.484;2022-10-16T00:54:27;100358.03;;;14.25;100.00
3844;BME280;1937;51.444;6.484;2022-10-16T00:56:59;99826.09;;;14.15;100.00
3844;BME280;1937;51.444;6.484;2022-10-16T00:59:30;100140.09;;;14.03;100.00
3844;BME280;1937;51.444;6.484;2022-10-16T01:02:00;101797.09;;;13.93;100.00
3844;BME280;1937;51.444;6.484;2022-10-16T01:04:33;103473.78;;;13.96;100.00
3844;BME280;1937;51.444;6.484;2022-10-16T01:07:09;104807.53;;;13.92;100.00
3844;BME280;1937;51.444;6.484;2022-10-16T01:09:47;104503.88;;;14.10;100.00
3844;BME280;1937;51.444;6.484;2022-10-16T01:12:26;104156.56;;;14.03;100.00
3844;BME280;1937;51.444;6.484;2022-10-16T01:15:04;104157.47;;;14.04;100.00
3844;BME280;1937;51.444;6.484;2022-10-16T01:17:38;104475.41;;;13.94;100.00
3844;BME280;1937;51.444;6.484;2022-10-16T01:20:14;104824.50;;;14.02;100.00
3844;BME280;1937;51.444;6.484;2022-10-16T01:22:55;104473.63;;;13.93;100.00
3844;BME280;1937;51.444;6.484;2022-10-16T01:25:36;105472.81;;;13.90;100.00
3844;BME280;1937;51.444;6.484;2022-10-16T01:28:11;105173.75;;;14.10;100.00
3844;BME280;1937;51.444;6.484;2022-10-16T01:30:42;104158.34;;;14.04;100.00
3844;BME280;1937;51.444;6.484;2022-10-16T01:33:16;103143.44;;;13.98;100.00
3844;BME280;1937;51.444;6.484;2022-10-16T01:35:48;102808.75;;;13.98;100.00
3844;BME280;1937;51.444;6.484;2022-10-16T01:38:23;102802.63;;;13.94;100.00
3844;BME280;1937;51.444;6.484;2022-10-16T01:40:58;102125.56;;;13.90;100.00
3844;BME280;1937;51.444;6.484;2022-10-16T01:43:33;102793.00;;;13.89;100.00
3844;BME280;1937;51.444;6.484;2022-10-16T01:46:03;101421.91;;;13.70;100.00
3844;BME280;1937;51.444;6.484;2022-10-16T01:48:33;103103.03;;;13.75;100.00
3844;BME280;1937;51.444;6.484;2022-10-16T01:51:06;103411.19;;;13.60;100.00
3844;BME280;1937;51.444;6.484;2022-10-16T01:53:38;104756.66;;;13.64;100.00
3844;BME280;1937;51.444;6.484;2022-10-16T01:56:09;104103.31;;;13.73;100.00
3844;BME280;1937;51.444;6.484;2022-10-16T01:58:45;104110.44;;;13.77;100.00
3844;BME280;1937;51.444;6.484;2022-10-16T02:01:16;103787.28;;;13.83;100.00
3844;BME280;1937;51.444;6.484;2022-10-16T02:03:48;102465.38;;;13.93;100.00
3844;BME280;1937;51.444;6.484;2022-10-16T02:06:17;101114.25;;;13.85;100.00
3844;BME280;1937;51.444;6.484;2022-10-16T02:08:46;100778.09;;;13.84;100.00
3844;BME280;1937;51.444;6.484;2022-10-16T02:11:14;101103.03;;;13.79;100.00
3844;BME280;1937;51.444;6.484;2022-10-16T02:13:48;102468.00;;;13.94;100.00
3844;BME280;1937;51.444;6.484;2022-10-16T02:16:19;99592.06;;;13.89;100.00
3844;BME280;1937;51.444;6.484;2022-10-16T02:18:50;100065.59;;;13.91;100.00
3844;BME280;1937;51.444;6.484;2022-10-16T02:21:22;99977.19;;;14.04;100.00
3844;BME280;1937;51.444;6.484;2022-10-16T02:23:57;98957.41;;;14.06;100.00
3844;BME280;1937;51.444;6.484;2022-10-16T02:26:30;97417.81;;;14.13;100.00
3844;BME280;1937;51.444;6.484;2022-10-16T02:29:05;95280.13;;;13.96;100.00
3844;BME280;1937;51.444;6.484;2022-10-16T02:31:38;97243.63;;;13.93;100.00
3844;BME280;1937;51.444;6.484;2022-10-16T02:34:09;97204.53;;;14.03;100.00
3844;BME280;1937;51.444;6.484;2022-10-16T02:36:39;95570.38;;;13.98;100.00
3844;BME280;1937;51.444;6.484;2022-10-16T02:39:10;95079.34;;;14.02;100.00
3844;BME280;1937;51.444;6.484;2022-10-16T02:41:39;94240.75;;;13.98;100.00
3844;BME280;1937;51.444;6.484;2022-10-16T02:44:08;94730.50;;;13.96;100.00
3844;BME280;1937;51.444;6.484;2022-10-16T02:46:37;93884.88;;;13.87;100.00
3844;BME280;1937;51.444;6.484;2022-10-16T02:49:05;94047.16;;;13.96;100.00
3844;BME280;1937;51.444;6.484;2022-10-16T02:51:33;93560.88;;;13.99;100.00
3844;BME280;1937;51.444;6.484;2022-10-16T02:54:01;93757.88;;;14.01;100.00
3844;BME280;1937;51.444;6.484;2022-10-16T02:56:30;93622.00;;;14.09;100.00
3844;BME280;1937;51.444;6.484;2022-10-16T02:58:58;91861.69;;;14.16;100.00
3844;BME280;1937;51.444;6.484;2022-10-16T03:01:28;91377.84;;;14.10;100.00
3844;BME280;1937;51.444;6.484;2022-10-16T03:03:56;90973.38;;;14.08;100.00
3844;BME280;1937;51.444;6.484;2022-10-16T03:06:24;89619.50;;;14.15;100.00
3844;BME280;1937;51.444;6.484;2022-10-16T03:08:53;89317.59;;;14.14;100.00
3844;BME280;1937;51.444;6.484;2022-10-16T03:11:21;90046.78;;;14.07;100.00
3844;BME280;1937;51.444;6.484;2022-10-16T03:13:49;89629.50;;;14.05;100.00
3844;BME280;1937;51.444;6.484;2022-10-16T03:16:17;89772.28;;;14.03;100.00
3844;BME280;1937;51.444;6.484;2022-10-16T03:18:51;90021.72;;;14.19;100.00
3844;BME280;1937;51.444;6.484;2022-10-16T03:21:19;88407.81;;;13.98;100.00
3844;BME280;1937;51.444;6.484;2022-10-16T03:23:47;89019.66;;;14.06;100.00
3844;BME280;1937;51.444;6.484;2022-10-16T03:26:16;89129.06;;;14.06;100.00
3844;BME280;1937;51.444;6.484;2022-10-16T03:28:44;89154.44;;;14.09;100.00
3844;BME280;1937;51.444;6.484;2022-10-16T03:31:16;87967.78;;;13.98;100.00
3844;BME280;1937;51.444;6.484;2022-10-16T03:33:44;88274.75;;;13.83;100.00
3844;BME280;1937;51.444;6.484;2022-10-16T03:36:14;89078.84;;;13.85;100.00
3844;BME280;1937;51.444;6.484;2022-10-16T03:38:42;89939.88;;;13.81;100.00
3844;BME280;1937;51.444;6.484;2022-10-16T03:41:11;89876.63;;;13.89;100.00
3844;BME280;1937;51.444;6.484;2022-10-16T03:43:39;89365.63;;;14.04;100.00
3844;BME280;1937;51.444;6.484;2022-10-16T03:46:08;88057.78;;;13.95;100.00
3844;BME280;1937;51.444;6.484;2022-10-16T03:48:37;87254.88;;;13.92;100.00
3844;BME280;1937;51.444;6.484;2022-10-16T03:51:06;87836.03;;;13.89;100.00
3844;BME280;1937;51.444;6.484;2022-10-16T03:53:36;87868.56;;;14.03;100.00
3844;BME280;1937;51.444;6.484;2022-10-16T03:56:04;87114.75;;;14.02;100.00
3844;BME280;1937;51.444;6.484;2022-10-16T03:58:34;86510.53;;;14.00;100.00
3844;BME280;1937;51.444;6.484;2022-10-16T04:01:02;86672.66;;;13.93;100.00
3844;BME280;1937;51.444;6.484;2022-10-16T04:03:30;87434.47;;;13.89;100.00
3844;BME280;1937;51.444;6.484;2022-10-16T04:05:58;87604.06;;;13.94;100.00
3844;BME280;1937;51.444;6.484;2022-10-16T04:08:27;86842.53;;;13.97;100.00
3844;BME280;1937;51.444;6.484;2022-10-16T04:10:56;86817.66;;;13.92;100.00
3844;BME280;1937;51.444;6.484;2022-10-16T04:13:25;86517.22;;;14.01;100.00
3844;BME280;1937;51.444;6.484;2022-10-16T04:15:54;86325.03;;;13.99;100.00
3844;BME280;1937;51.444;6.484;2022-10-16T04:18:22;86048.72;;;14.08;100.00
3844;BME280;1937;51.444;6.484;2022-10-16T04:20:50;85855.66;;;13.93;100.00
3844;BME280;1937;51.444;6.484;2022-10-16T04:23:19;85966.13;;;13.88;100.00
3844;BME280;1937;51.444;6.484;2022-10-16T04:25:47;86312.47;;;13.94;100.00
3844;BME280;1937;51.444;6.484;2022-10-16T04:28:16;85436.72;;;13.97;100.00
3844;BME280;1937;51.444;6.484;2022-10-16T04:30:45;85592.66;;;14.04;100.00
3844;BME280;1937;51.444;6.484;2022-10-16T04:33:14;85204.25;;;13.90;100.00
3844;BME280;1937;51.444;6.484;2022-10-16T04:35:43;85035.81;;;13.94;100.00
3844;BME280;1937;51.444;6.484;2022-10-16T04:38:11;85070.38;;;13.95;100.00
3844;BME280;1937;51.444;6.484;2022-10-16T04:40:39;84814.59;;;13.98;100.00
3844;BME280;1937;51.444;6.484;2022-10-16T04:43:09;84831.56;;;13.81;100.00
3844;BME280;1937;51.444;6.484;2022-10-16T04:45:41;85759.22;;;13.84;100.00
3844;BME280;1937;51.444;6.484;2022-10-16T04:48:09;85685.97;;;13.85;100.00
3844;BME280;1937;51.444;6.484;2022-10-16T04:50:37;85469.09;;;13.79;100.00
3844;BME280;1937;51.444;6.484;2022-10-16T04:53:06;85686.94;;;13.91;100.00
3844;BME280;1937;51.444;6.484;2022-10-16T04:55:35;84971.34;;;13.89;100.00
3844;BME280;1937;51.444;6.484;2022-10-16T04:58:05;86098.34;;;13.93;100.00
3844;BME280;1937;51.444;6.484;2022-10-16T05:00:33;86143.72;;;13.92;100.00
3844;BME280;1937;51.444;6.484;2022-10-16T05:03:04;85903.72;;;13.85;100.00
3844;BME280;1937;51.444;6.484;2022-10-16T05:05:35;86025.41;;;14.01;100.00
3844;BME280;1937;51.444;6.484;2022-10-16T05:08:04;85637.78;;;13.97;100.00
3844;BME280;1937;51.444;6.484;2022-10-16T05:10:33;84916.72;;;13.89;100.00
3844;BME280;1937;51.444;6.484;2022-10-16T05:13:01;85427.94;;;13.90;100.00
3844;BME280;1937;51.444;6.484;2022-10-16T05:15:30;85827.13;;;13.89;100.00
3844;BME280;1937;51.444;6.484;2022-10-16T05:17:58;86123.56;;;13.97;100.00
3844;BME280;1937;51.444;6.484;2022-10-16T05:20:28;85653.13;;;13.91;100.00
3844;BME280;1937;51.444;6.484;2022-10-16T05:22:56;85943.66;;;13.98;100.00
3844;BME280;1937;51.444;6.484;2022-10-16T05:25:28;85959.56;;;13.80;100.00
3844;BME280;1937;51.444;6.484;2022-10-16T05:27:57;86651.53;;;13.87;100.00
3844;BME280;1937;51.444;6.484;2022-10-16T05:30:27;87153.38;;;13.92;100.00
3844;BME280;1937;51.444;6.484;2022-10-16T05:32:56;86232.13;;;13.96;100.00
3844;BME280;1937;51.444;6.484;2022-10-16T05:35:24;86147.16;;;13.86;100.00
3844;BME280;1937;51.444;6.484;2022-10-16T05:37:55;86716.94;;;13.86;100.00
3844;BME280;1937;51.444;6.484;2022-10-16T05:40:23;86629.25;;;13.83;100.00
3844;BME280;1937;51.444;6.484;2022-10-16T05:42:51;86812.84;;;13.87;100.00
3844;BME280;1937;51.444;6.484;2022-10-16T05:45:22;86090.97;;;13.65;100.00
3844;BME280;1937;51.444;6.484;2022-10-16T05:47:51;87253.72;;;13.76;100.00
3844;BME280;1937;51.444;6.484;2022-10-16T05:50:19;86837.44;;;13.72;100.00
3844;BME280;1937;51.444;6.484;2022-10-16T05:52:47;86420.06;;;13.77;100.00
3844;BME280;1937;51.444;6.484;2022-10-16T05:55:17;86638.22;;;13.71;100.00
3844;BME280;1937;51.444;6.484;2022-10-16T05:57:45;87272.22;;;13.64;100.00
3844;BME280;1937;51.444;6.484;2022-10-16T06:00:14;88431.34;;;13.54;100.00
3844;BME280;1937;51.444;6.484;2022-10-16T06:02:43;89944.69;;;13.65;100.00
3844;BME280;1937;51.444;6.484;2022-10-16T06:05:11;90168.81;;;13.55;100.00
3844;BME280;1937;51.444;6.484;2022-10-16T06:07:39;91596.78;;;13.59;100.00
3844;BME280;1937;51.444;6.484;2022-10-16T06:10:10;91343.09;;;13.55;100.00
3844;BME280;1937;51.444;6.484;2022-10-16T06:12:39;91842.47;;;13.70;100.00
3844;BME280;1937;51.444;6.484;2022-10-16T06:15:09;91188.94;;;13.58;100.00
3844;BME280;1937;51.444;6.484;2022-10-16T06:17:37;92196.03;;;13.47;100.00
3844;BME280;1937;51.444;6.484;2022-10-16T06:20:07;94213.50;;;13.46;100.00
3844;BME280;1937;51.444;6.484;2022-10-16T06:22:36;94302.09;;;13.46;100.00
3844;BME280;1937;51.444;6.484;2022-10-16T06:25:05;94198.72;;;13.67;100.00
3844;BME280;1937;51.444;6.484;2022-10-16T06:27:34;93879.75;;;13.55;100.00
3844;BME280;1937;51.444;6.484;2022-10-16T06:30:04;95171.28;;;13.59;100.00
3844;BME280;1937;51.444;6.484;2022-10-16T06:32:33;95619.91;;;13.57;100.00
3844;BME280;1937;51.444;6.484;2022-10-16T06:35:01;96517.38;;;13.62;100.00
3844;BME280;1937;51.444;6.484;2022-10-16T06:37:29;95222.88;;;13.71;100.00
3844;BME280;1937;51.444;6.484;2022-10-16T06:39:58;94740.81;;;13.68;100.00
3844;BME280;1937;51.444;6.484;2022-10-16T06:42:27;94556.63;;;13.82;100.00
3844;BME280;1937;51.444;6.484;2022-10-16T06:44:55;93644.25;;;13.80;100.00
3844;BME280;1937;51.444;6.484;2022-10-16T06:47:26;93364.16;;;13.76;100.00
3844;BME280;1937;51.444;6.484;2022-10-16T06:49:55;93553.66;;;13.76;100.00
3844;BME280;1937;51.444;6.484;2022-10-16T06:52:24;93715.72;;;13.66;100.00
3844;BME280;1937;51.444;6.484;2022-10-16T06:54:52;94679.19;;;13.82;100.00
3844;BME280;1937;51.444;6.484;2022-10-16T06:57:21;93306.53;;;13.66;100.00
3844;BME280;1937;51.444;6.484;2022-10-16T06:59:52;94663.41;;;13.69;100.00
3844;BME280;1937;51.444;6.484;2022-10-16T07:02:21;95972.09;;;13.81;100.00
3844;BME280;1937;51.444;6.484;2022-10-16T07:04:50;94719.31;;;13.81;100.00
3844;BME280;1937;51.444;6.484;2022-10-16T07:07:19;95022.09;;;13.86;100.00
3844;BME280;1937;51.444;6.484;2022-10-16T07:09:47;94313.16;;;13.89;100.00
3844;BME280;1937;51.444;6.484;2022-10-16T07:12:15;94382.31;;;13.85;100.00
3844;BME280;1937;51.444;6.484;2022-10-16T07:14:43;94407.75;;;13.77;100.00
3844;BME280;1937;51.444;6.484;2022-10-16T07:17:13;95455.44;;;13.83;100.00
3844;BME280;1937;51.444;6.484;2022-10-16T07:19:44;96324.88;;;13.75;100.00
3844;BME280;1937;51.444;6.484;2022-10-16T07:22:13;97612.84;;;13.89;100.00
3844;BME280;1937;51.444;6.484;2022-10-16T07:24:42;97348.00;;;14.04;100.00
3844;BME280;1937;51.444;6.484;2022-10-16T07:27:11;96740.72;;;14.03;100.00
3844;BME280;1937;51.444;6.484;2022-10-16T07:29:39;96960.34;;;14.19;100.00
3844;BME280;1937;51.444;6.484;2022-10-16T07:32:08;95860.25;;;14.20;100.00
3844;BME280;1937;51.444;6.484;2022-10-16T07:34:36;95671.66;;;14.34;100.00
3844;BME280;1937;51.444;6.484;2022-10-16T07:37:04;94598.44;;;14.38;100.00
3844;BME280;1937;51.444;6.484;2022-10-16T07:39:34;93247.38;;;14.45;100.00
3844;BME280;1937;51.444;6.484;2022-10-16T07:42:02;92722.06;;;14.56;100.00
3844;BME280;1937;51.444;6.484;2022-10-16T07:44:30;91594.94;;;14.71;100.00
3844;BME280;1937;51.444;6.484;2022-10-16T07:46:59;91035.41;;;14.82;100.00
3844;BME280;1937;51.444;6.484;2022-10-16T07:49:27;90177.25;;;14.94;100.00
3844;BME280;1937;51.444;6.484;2022-10-16T07:51:55;89315.53;;;15.27;100.00
3844;BME280;1937;51.444;6.484;2022-10-16T07:54:24;87622.31;;;15.62;100.00
3844;BME280;1937;51.444;6.484;2022-10-16T07:56:54;84724.31;;;16.08;100.00
3844;BME280;1937;51.444;6.484;2022-10-16T07:59:23;82036.31;;;16.53;96.41
3844;BME280;1937;51.444;6.484;2022-10-16T08:01:51;78531.72;;;16.79;94.06
3844;BME280;1937;51.444;6.484;2022-10-16T08:04:19;76948.47;;;16.91;92.46
3844;BME280;1937;51.444;6.484;2022-10-16T08:06:47;76273.91;;;17.11;91.92
3844;BME280;1937;51.444;6.484;2022-10-16T08:09:18;75559.13;;;17.40;90.54
3844;BME280;1937;51.444;6.484;2022-10-16T08:11:46;74709.69;;;17.61;89.41
3844;BME280;1937;51.444;6.484;2022-10-16T08:14:16;74268.84;;;17.80;88.61
3844;BME280;1937;51.444;6.484;2022-10-16T08:16:44;73806.94;;;17.84;87.88
3844;BME280;1937;51.444;6.484;2022-10-16T08:19:15;73344.59;;;17.69;87.64
3844;BME280;1937;51.444;6.484;2022-10-16T08:21:46;73212.97;;;17.80;87.74
3844;BME280;1937;51.444;6.484;2022-10-16T08:24:14;73064.81;;;17.83;87.54
3844;BME280;1937;51.444;6.484;2022-10-16T08:26:43;73082.91;;;18.10;86.83
3844;BME280;1937;51.444;6.484;2022-10-16T08:29:12;72778.38;;;18.09;85.91
3844;BME280;1937;51.444;6.484;2022-10-16T08:31:42;72468.41;;;18.00;86.15
3844;BME280;1937;51.444;6.484;2022-10-16T08:34:11;72739.28;;;18.30;86.28
3844;BME280;1937;51.444;6.484;2022-10-16T08:36:39;72612.25;;;18.37;85.77
3844;BME280;1937;51.444;6.484;2022-10-16T08:39:09;72267.94;;;18.24;85.18
3844;BME280;1937;51.444;6.484;2022-10-16T08:42:04;72512.34;;;18.79;84.32
3844;BME280;1937;51.444;6.484;2022-10-16T08:44:58;72064.16;;;18.65;83.51
3844;BME280;1937;51.444;6.484;2022-10-16T08:47:39;72101.84;;;18.85;84.09
3844;BME280;1937;51.444;6.484;2022-10-16T08:50:13;71933.03;;;18.90;83.22
3844;BME280;1937;51.444;6.484;2022-10-16T08:52:44;71985.63;;;19.20;82.23
3844;BME280;1937;51.444;6.484;2022-10-16T08:55:20;71686.13;;;19.32;81.36
3844;BME280;1937;51.444;6.484;2022-10-16T08:57:53;71681.22;;;19.37;81.27
3844;BME280;1937;51.444;6.484;2022-10-16T09:00:23;71508.03;;;19.21;81.16
3844;BME280;1937;51.444;6.484;2022-10-16T09:02:58;71598.00;;;19.48;81.13
3844;BME280;1937;51.444;6.484;2022-10-16T09:05:45;71532.41;;;19.35;81.50
3844;BME280;1937;51.444;6.484;2022-10-16T09:08:21;71352.44;;;19.31;80.76
3844;BME280;1937;51.444;6.484;2022-10-16T09:11:00;71311.31;;;19.22;80.56
3844;BME280;1937;51.444;6.484;2022-10-16T09:13:39;71074.31;;;18.99;79.82
3844;BME280;1937;51.444;6.484;2022-10-16T09:16:14;71152.66;;;19.51;78.77
3844;BME280;1937;51.444;6.484;2022-10-16T09:18:48;71041.16;;;19.41;79.20
3844;BME280;1937;51.444;6.484;2022-10-16T09:21:21;71063.53;;;19.69;78.40
3844;BME280;1937;51.444;6.484;2022-10-16T09:23:51;71144.78;;;19.88;78.82
3844;BME280;1937;51.444;6.484;2022-10-16T09:26:21;71019.41;;;20.15;76.53
3844;BME280;1937;51.444;6.484;2022-10-16T09:28:49;70829.00;;;20.02;76.09
3844;BME280;1937;51.444;6.484;2022-10-16T09:31:22;70686.69;;;19.79;76.25
3844;BME280;1937;51.444;6.484;2022-10-16T09:33:57;70795.81;;;19.59;78.44
3844;BME280;1937;51.444;6.484;2022-10-16T09:36:27;70703.91;;;19.56;77.26
3844;BME280;1937;51.444;6.484;2022-10-16T09:39:07;70861.34;;;19.92;77.27
3844;BME280;1937;51.444;6.484;2022-10-16T09:41:36;70754.75;;;20.06;75.56
3844;BME280;1937;51.444;6.484;2022-10-16T09:44:14;70858.34;;;20.37;75.53
3844;BME280;1937;51.444;6.484;2022-10-16T09:46:46;70720.81;;;20.32;74.85
3844;BME280;1937;51.444;6.484;2022-10-16T09:49:23;70626.63;;;20.32;74.64
3844;BME280;1937;51.444;6.484;2022-10-16T09:52:02;70640.47;;;20.50;74.06
3844;BME280;1937;51.444;6.484;2022-10-16T09:54:31;70596.00;;;20.30;74.87
3844;BME280;1937;51.444;6.484;2022-10-16T09:57:06;70568.22;;;20.33;74.63
3844;BME280;1937;51.444;6.484;2022-10-16T09:59:45;70567.00;;;20.32;74.49
3844;BME280;1937;51.444;6.484;2022-10-16T10:02:16;70635.66;;;20.66;73.13
3844;BME280;1937;51.444;6.484;2022-10-16T10:04:50;70444.59;;;20.46;73.03
3844;BME280;1937;51.444;6.484;2022-10-16T10:07:26;70526.09;;;20.62;73.29
3844;BME280;1937;51.444;6.484;2022-10-16T10:09:57;70582.06;;;20.71;74.14
3844;BME280;1937;51.444;6.484;2022-10-16T10:12:26;70505.72;;;20.75;72.70
3844;BME280;1937;51.444;6.484;2022-10-16T10:14:57;70647.47;;;21.17;72.80
3844;BME280;1937;51.444;6.484;2022-10-16T10:17:28;70593.06;;;21.18;72.43
3844;BME280;1937;51.444;6.484;2022-10-16T10:20:00;70472.81;;;20.90;71.98
3844;BME280;1937;51.444;6.484;2022-10-16T10:22:39;70339.88;;;20.53;73.19
3844;BME280;1937;51.444;6.484;2022-10-16T10:25:25;70444.47;;;20.79;72.74
3844;BME280;1937;51.444;6.484;2022-10-16T10:28:36;70570.88;;;21.10;73.60
3844;BME280;1937;51.444;6.484;2022-10-16T10:31:13;70453.81;;;21.02;72.34
3844;BME280;1937;51.444;6.484;2022-10-16T10:33:48;70596.78;;;21.39;72.20
3844;BME280;1937;51.444;6.484;2022-10-16T10:36:32;70274.59;;;20.88;70.11
3844;BME280;1937;51.444;6.484;2022-10-16T10:39:05;70281.31;;;20.74;72.39
3844;BME280;1937;51.444;6.484;2022-10-16T10:42:02;70376.22;;;21.05;71.48
3844;BME280;1937;51.444;6.484;2022-10-16T10:44:59;70292.09;;;20.90;71.75
3844;BME280;1937;51.444;6.484;2022-10-16T10:47:38;70386.66;;;21.12;71.56
3844;BME280;1937;51.444;6.484;2022-10-16T10:50:11;70342.16;;;21.05;72.16
3844;BME280;1937;51.444;6.484;2022-10-16T10:52:53;70257.66;;;20.87;71.53
3844;BME280;1937;51.444;6.484;2022-10-16T10:55:26;70303.25;;;21.08;71.08
3844;BME280;1937;51.444;6.484;2022-10-16T10:58:06;70326.41;;;21.12;71.59
3844;BME280;1937;51.444;6.484;2022-10-16T11:00:44;70207.31;;;20.62;73.44
3844;BME280;1937;51.444;6.484;2022-10-16T11:03:27;70351.31;;;20.93;73.68
3844;BME280;1937;51.444;6.484;2022-10-16T11:06:02;70364.31;;;21.06;72.62
3844;BME280;1937;51.444;6.484;2022-10-16T11:08:38;70135.25;;;20.57;71.74
3844;BME280;1937;51.444;6.484;2022-10-16T11:11:14;70053.44;;;20.21;72.87
3844;BME280;1937;51.444;6.484;2022-10-16T11:13:49;69961.72;;;19.98;73.80
3844;BME280;1937;51.444;6.484;2022-10-16T11:16:23;69871.97;;;19.65;73.72
3844;BME280;1937;51.444;6.484;2022-10-16T11:19:02;69761.50;;;19.17;75.70
3844;BME280;1937;51.444;6.484;2022-10-16T11:21:37;69949.00;;;19.59;75.76
3844;BME280;1937;51.444;6.484;2022-10-16T11:24:16;69966.34;;;19.74;75.00
3844;BME280;1937;51.444;6.484;2022-10-16T11:26:48;70051.91;;;19.86;76.60
3844;BME280;1937;51.444;6.484;2022-10-16T11:29:20;70196.66;;;20.27;75.04
3844;BME280;1937;51.444;6.484;2022-10-16T11:31:55;70333.66;;;20.80;73.81
3844;BME280;1937;51.444;6.484;2022-10-16T11:34:29;70330.88;;;21.07;71.42
3844;BME280;1937;51.444;6.484;2022-10-16T11:37:04;70084.34;;;20.56;71.26
3844;BME280;1937;51.444;6.484;2022-10-16T11:39:39;70079.28;;;20.36;72.34
3844;BME280;1937;51.444;6.484;2022-10-16T11:42:13;69944.66;;;19.93;74.21
3844;BME280;1937;51.444;6.484;2022-10-16T11:44:50;69964.78;;;19.94;72.56
3844;BME280;1937;51.444;6.484;2022-10-16T11:47:30;70080.88;;;20.39;71.88
3844;BME280;1937;51.444;6.484;2022-10-16T11:50:04;70052.75;;;20.51;70.70
3844;BME280;1937;51.444;6.484;2022-10-16T11:52:40;70032.06;;;20.49;71.40
3844;BME280;1937;51.444;6.484;2022-10-16T11:55:17;70157.78;;;20.84;70.30
3844;BME280;1937;51.444;6.484;2022-10-16T11:57:50;70017.53;;;20.50;71.60
3844;BME280;1937;51.444;6.484;2022-10-16T12:00:24;70001.09;;;20.45;71.52
3844;BME280;1937;51.444;6.484;2022-10-16T12:02:58;70035.50;;;20.48;71.89
3844;BME280;1937;51.444;6.484;2022-10-16T12:05:35;69925.41;;;20.25;72.77
3844;BME280;1937;51.444;6.484;2022-10-16T12:08:12;69969.06;;;20.27;71.60
3844;BME280;1937;51.444;6.484;2022-10-16T12:10:46;70080.53;;;20.55;71.70
3844;BME280;1937;51.444;6.484;2022-10-16T12:13:30;70043.72;;;20.50;72.57
3844;BME280;1937;51.444;6.484;2022-10-16T12:16:05;70053.22;;;20.47;72.90
3844;BME280;1937;51.444;6.484;2022-10-16T12:18:34;70100.88;;;20.54;72.74
3844;BME280;1937;51.444;6.484;2022-10-16T12:21:03;70088.19;;;20.50;72.83
3844;BME280;1937;51.444;6.484;2022-10-16T12:23:36;70064.38;;;20.59;70.94
3844;BME280;1937;51.444;6.484;2022-10-16T12:26:07;69921.66;;;20.00;73.08
3844;BME280;1937;51.444;6.484;2022-10-16T12:28:35;69947.09;;;20.13;73.56
3844;BME280;1937;51.444;6.484;2022-10-16T12:31:06;69975.03;;;20.14;73.97
3844;BME280;1937;51.444;6.484;2022-10-16T12:33:39;70009.34;;;20.23;74.90
3844;BME280;1937;51.444;6.484;2022-10-16T12:36:16;70116.47;;;20.43;73.72
3844;BME280;1937;51.444;6.484;2022-10-16T12:38:55;70025.59;;;20.30;73.79
3844;BME280;1937;51.444;6.484;2022-10-16T12:41:29;70049.25;;;20.41;72.43
3844;BME280;1937;51.444;6.484;2022-10-16T12:43:59;70048.06;;;20.58;72.02
3844;BME280;1937;51.444;6.484;2022-10-16T12:46:39;69888.72;;;19.96;73.01
3844;BME280;1937;51.444;6.484;2022-10-16T12:49:21;70003.72;;;20.21;73.71
3844;BME280;1937;51.444;6.484;2022-10-16T12:51:51;70000.63;;;20.31;73.22
3844;BME280;1937;51.444;6.484;2022-10-16T12:54:22;69933.09;;;20.21;72.71
3844;BME280;1937;51.444;6.484;2022-10-16T12:57:13;69909.19;;;20.00;73.54
3844;BME280;1937;51.444;6.484;2022-10-16T12:59:51;69990.44;;;20.23;74.68
3844;BME280;1937;51.444;6.484;2022-10-16T13:05:34;70039.41;;;20.60;72.04
3844;BME280;1937;51.444;6.484;2022-10-16T13:08:23;70058.69;;;20.63;72.16
3844;BME280;1937;51.444;6.484;2022-10-16T13:11:03;69997.13;;;20.57;71.12
3844;BME280;1937;51.444;6.484;2022-10-16T13:13:53;69833.81;;;20.14;71.68
3844;BME280;1937;51.444;6.484;2022-10-16T13:16:29;69869.44;;;20.11;72.03
3844;BME280;1937;51.444;6.484;2022-10-16T13:19:11;69914.28;;;20.14;73.50
3844;BME280;1937;51.444;6.484;2022-10-16T13:21:54;69951.88;;;20.17;73.08
3844;BME280;1937;51.444;6.484;2022-10-16T13:24:42;69980.22;;;20.38;72.51
3844;BME280;1937;51.444;6.484;2022-10-16T13:27:20;69922.63;;;20.21;73.24
3844;BME280;1937;51.444;6.484;2022-10-16T13:30:00;69975.44;;;20.34;72.00
3844;BME280;1937;51.444;6.484;2022-10-16T13:32:30;69879.03;;;20.37;71.33
3844;BME280;1937;51.444;6.484;2022-10-16T13:34:58;69863.31;;;20.37;70.64
3844;BME280;1937;51.444;6.484;2022-10-16T13:37:28;69928.13;;;20.54;71.07
3844;BME280;1937;51.444;6.484;2022-10-16T13:40:17;69921.59;;;20.60;69.84
3844;BME280;1937;51.444;6.484;2022-10-16T13:42:47;69900.75;;;20.53;70.39
3844;BME280;1937;51.444;6.484;2022-10-16T13:45:22;69909.81;;;20.54;70.76